Time;durP1;ratioP1;P1;durP2;ratioP2;P2;SDS_P1;SDS_P2;PMS_P1;PMS_P2;Temp;Humidity;BMP_temperature;BMP_pressure;BME280_temperature;BME280_humidity;BME280_pressure;Samples;Min_cycle;Max_cycle;Signal;HPM_P1;HPM_P2
2023/10/27 00:00:47;;;;;;;2.92;2.22;;;;;;;-144.73;100.00;54608.84;4851672;29;20066;-73
2023/10/27 00:03:12;;;;;;;4.30;2.08;;;;;;;-144.73;100.00;54649.91;4842955;29;20022;-72
2023/10/27 00:05:37;;;;;;;6.07;2.42;;;;;;;-144.73;100.00;54645.78;4858387;29;20060;-72
2023/10/27 00:08:03;;;;;;;9.90;3.00;;;;;;;-144.73;100.00;54606.78;4858726;29;20038;-74
2023/10/27 00:10:28;;;;;;;4.72;2.92;;;;;;;-144.73;100.00;54629.38;4851985;29;20044;-73
2023/10/27 00:12:54;;;;;;;4.28;2.90;;;;;;;-144.73;100.00;54649.91;4858181;29;20025;-72
2023/10/27 00:15:19;;;;;;;5.90;2.60;;;;;;;-144.73;100.00;54584.22;4844487;29;20038;-72
2023/10/27 00:17:44;;;;;;;5.47;2.72;;;;;;;-144.73;100.00;54604.75;4859174;29;20025;-73
2023/10/27 00:20:10;;;;;;;9.68;3.40;;;;;;;-144.73;100.00;54631.44;4852240;29;20037;-73
2023/10/27 00:22:35;;;;;;;7.10;4.47;;;;;;;-144.73;100.00;54658.13;4858433;29;20025;-74
2023/10/27 00:25:02;;;;;;;12.18;3.47;;;;;;;-144.73;100.00;54633.47;4851086;29;20061;-74
2023/10/27 00:27:27;;;;;;;6.80;3.63;;;;;;;-144.73;100.00;54645.78;4853172;29;20064;-74
2023/10/27 00:29:52;;;;;;;7.60;3.03;;;;;;;-144.73;100.00;54625.28;4856122;29;20082;-73
2023/10/27 00:32:18;;;;;;;6.95;3.03;;;;;;;-144.73;100.00;54631.44;4847786;29;20049;-73
2023/10/27 00:34:43;;;;;;;8.50;2.88;;;;;;;-144.73;100.00;54658.13;4861263;29;20046;-73
2023/10/27 00:37:09;;;;;;;5.50;3.05;;;;;;;-144.73;100.00;54670.44;4846756;29;20026;-73
2023/10/27 00:39:34;;;;;;;7.45;3.03;;;;;;;-144.73;100.00;54641.69;4862267;29;20116;-74
2023/10/27 00:41:59;;;;;;;6.40;3.03;;;;;;;-144.73;100.00;54654.00;4861241;29;20037;-74
2023/10/27 00:44:24;;;;;;;7.57;2.83;;;;;;;-144.73;100.00;54604.75;4841241;29;20050;-74
2023/10/27 00:46:52;;;;;;;10.00;3.97;;;;;;;-144.73;100.00;54637.59;4846019;29;20098;-75
2023/10/27 00:49:18;;;;;;;8.00;3.60;;;;;;;-144.73;100.00;54625.28;4851994;29;20116;-74
2023/10/27 00:51:46;;;;;;;7.65;3.58;;;;;;;-144.73;100.00;54678.63;4844129;29;20140;-75
2023/10/27 00:54:15;;;;;;;5.00;3.65;;;;;;;-144.73;100.00;54649.91;4862101;29;20041;-74
2023/10/27 00:56:41;;;;;;;7.90;3.13;;;;;;;-144.73;100.00;54612.97;4852242;29;20021;-74
2023/10/27 00:59:07;;;;;;;6.65;2.97;;;;;;;-144.73;100.00;54617.06;4861015;29;20037;-74
2023/10/27 01:01:33;;;;;;;5.78;2.75;;;;;;;-144.73;100.00;54637.59;4861792;29;20026;-74
2023/10/27 01:03:59;;;;;;;7.28;3.42;;;;;;;-144.73;100.00;54633.47;4860292;29;20041;-75
2023/10/27 01:06:25;;;;;;;7.35;3.22;;;;;;;-144.73;100.00;54633.47;4862140;29;20032;-75
2023/10/27 01:08:50;;;;;;;6.85;3.00;;;;;;;-144.73;100.00;54592.44;4861272;29;20036;-75
2023/10/27 01:11:20;;;;;;;7.15;2.88;;;;;;;-144.73;100.00;54629.38;4859833;29;20025;-75
2023/10/27 01:13:50;;;;;;;4.18;2.45;;;;;;;-144.73;100.00;54608.84;4852050;29;20021;-75
2023/10/27 01:16:15;;;;;;;4.60;2.55;;;;;;;-144.73;100.00;54654.00;4854526;29;20093;-75
2023/10/27 01:18:40;;;;;;;4.78;2.58;;;;;;;-144.73;100.00;54621.16;4845603;29;20102;-75
2023/10/27 01:21:06;;;;;;;9.30;2.80;;;;;;;-144.73;100.00;54629.38;4862049;29;20033;-75
2023/10/27 01:23:31;;;;;;;3.92;2.38;;;;;;;-144.73;100.00;54633.47;4860997;29;20029;-75
2023/10/27 01:25:56;;;;;;;7.90;2.80;;;;;;;-144.73;100.00;54590.38;4859826;29;20037;-76
2023/10/27 01:28:21;;;;;;;6.28;2.28;;;;;;;-144.73;100.00;54600.63;4861114;29;20125;-75
2023/10/27 01:30:47;;;;;;;6.15;2.30;;;;;;;-144.73;100.00;54608.84;4844184;29;20034;-75
2023/10/27 01:33:12;;;;;;;6.90;2.30;;;;;;;-144.73;100.00;54649.91;4859738;29;20054;-75
2023/10/27 01:35:38;;;;;;;7.20;2.58;;;;;;;-144.73;100.00;54608.84;4851210;29;20026;-75
2023/10/27 01:38:03;;;;;;;3.47;2.10;;;;;;;-144.73;100.00;54617.06;4866514;29;20030;-75
2023/10/27 01:40:28;;;;;;;13.50;2.40;;;;;;;-144.73;100.00;54627.31;4846512;29;20037;-75
2023/10/27 01:42:54;;;;;;;3.15;1.92;;;;;;;-144.73;100.00;54596.53;4859654;29;20036;-75
2023/10/27 01:45:19;;;;;;;7.85;1.98;;;;;;;-144.73;100.00;54612.97;4851676;29;20045;-75
2023/10/27 01:47:44;;;;;;;3.35;1.80;;;;;;;-144.73;100.00;54658.13;4842215;29;20025;-75
2023/10/27 01:50:10;;;;;;;4.75;1.80;;;;;;;-144.73;100.00;54654.00;4859587;29;20140;-75
2023/10/27 01:52:35;;;;;;;2.05;1.63;;;;;;;-144.73;100.00;54658.13;4865552;29;20108;-75
2023/10/27 01:55:01;;;;;;;4.47;1.73;;;;;;;-144.73;100.00;54637.59;4867980;29;20037;-75
2023/10/27 01:57:26;;;;;;;7.97;2.42;;;;;;;-144.73;100.00;54649.91;4854389;29;20041;-75
2023/10/27 01:59:51;;;;;;;6.40;2.38;;;;;;;-144.73;100.00;54612.97;4849799;29;20547;-75
2023/10/27 02:02:17;;;;;;;5.47;2.25;;;;;;;-144.73;100.00;54612.97;4853096;29;20025;-75
2023/10/27 02:04:42;;;;;;;7.47;2.45;;;;;;;-144.73;100.00;54670.44;4845151;29;20040;-75
2023/10/27 02:07:10;;;;;;;13.50;2.35;;;;;;;-144.73;100.00;54674.53;4872827;29;20081;-76
2023/10/27 02:09:36;;;;;;;6.90;2.38;;;;;;;-144.73;100.00;54674.53;4865881;29;20040;-75
2023/10/27 02:12:02;;;;;;;3.50;2.17;;;;;;;-144.73;100.00;54629.38;4863709;29;20034;-75
2023/10/27 02:14:28;;;;;;;4.88;2.20;;;;;;;-144.73;100.00;54612.97;4870839;29;20029;-75
2023/10/27 02:16:53;;;;;;;3.97;2.38;;;;;;;-144.73;100.00;54598.59;4848129;29;20053;-75
2023/10/27 02:19:19;;;;;;;7.90;2.45;;;;;;;-144.73;100.00;54592.44;4863490;29;20493;-75
2023/10/27 02:21:45;;;;;;;5.95;2.22;;;;;;;-144.73;100.00;54584.22;4847475;29;20026;-75
2023/10/27 02:24:11;;;;;;;6.13;2.20;;;;;;;-144.73;100.00;54637.59;4844001;29;20121;-76
2023/10/27 02:26:37;;;;;;;12.65;2.60;;;;;;;-144.73;100.00;54658.13;4852970;29;20149;-75
2023/10/27 02:29:02;;;;;;;8.30;2.55;;;;;;;-144.73;100.00;54637.59;4865580;29;20120;-75
2023/10/27 02:31:28;;;;;;;6.85;2.67;;;;;;;-144.73;100.00;54654.00;4861260;29;20017;-75
2023/10/27 02:33:53;;;;;;;11.32;2.53;;;;;;;-144.73;100.00;54600.63;4847970;29;20038;-75
2023/10/27 02:36:19;;;;;;;5.63;2.28;;;;;;;-144.73;100.00;54658.13;4850229;29;20030;-75
2023/10/27 02:38:44;;;;;;;5.18;2.10;;;;;;;-144.73;100.00;54633.47;4859829;29;20021;-74
2023/10/27 02:41:11;;;;;;;8.38;2.38;;;;;;;-144.73;100.00;54608.84;4863772;29;20033;-75
2023/10/27 02:43:38;;;;;;;5.18;2.38;;;;;;;-144.73;100.00;54633.47;4854058;29;20112;-75
2023/10/27 02:46:04;;;;;;;5.75;2.78;;;;;;;-144.73;100.00;54662.22;4861922;29;20033;-75
2023/10/27 02:48:30;;;;;;;4.57;2.10;;;;;;;-144.73;100.00;54588.31;4853542;29;20025;-74
2023/10/27 02:50:56;;;;;;;7.90;2.17;;;;;;;-144.73;100.00;54606.78;4861020;29;20065;-75
2023/10/27 02:53:21;;;;;;;10.70;2.58;;;;;;;-144.73;100.00;54629.38;4859156;29;20092;-75
2023/10/27 02:55:47;;;;;;;7.05;2.40;;;;;;;-144.73;100.00;54604.75;4865255;29;20034;-75
2023/10/27 02:58:12;;;;;;;3.95;2.20;;;;;;;-144.73;100.00;54637.59;4858412;29;20080;-75
2023/10/27 03:00:44;;;;;;;6.93;2.78;;;;;;;-144.73;100.00;54645.78;4863746;29;20040;-75
2023/10/27 03:03:10;;;;;;;8.10;2.50;;;;;;;-144.73;100.00;54617.06;4859127;29;20055;-74
2023/10/27 03:05:36;;;;;;;9.02;2.42;;;;;;;-144.73;100.00;54612.97;4848615;29;20044;-75
2023/10/27 03:08:02;;;;;;;9.27;2.85;;;;;;;-144.73;100.00;54629.38;4850777;29;20112;-75
2023/10/27 03:10:28;;;;;;;7.45;2.30;;;;;;;-144.73;100.00;54635.53;4861747;29;20030;-74
2023/10/27 03:12:54;;;;;;;12.07;3.00;;;;;;;-144.73;100.00;54645.78;4865796;29;20120;-75
2023/10/27 03:15:19;;;;;;;6.97;2.78;;;;;;;-144.73;100.00;54621.16;4859244;29;20045;-75
2023/10/27 03:17:45;;;;;;;8.82;2.58;;;;;;;-144.73;100.00;54625.28;4845507;29;20504;-75
2023/10/27 03:20:11;;;;;;;8.30;2.92;;;;;;;-144.73;100.00;54647.84;4845042;29;20045;-75
2023/10/27 03:22:37;;;;;;;6.20;3.20;;;;;;;-144.73;100.00;54621.16;4862869;29;20477;-75
2023/10/27 03:25:03;;;;;;;6.03;2.70;;;;;;;-144.73;100.00;54617.06;4857210;29;20041;-75
2023/10/27 03:27:30;;;;;;;6.63;3.08;;;;;;;-144.73;100.00;54580.13;4846997;29;20026;-75
2023/10/27 03:29:56;;;;;;;8.07;3.03;;;;;;;-144.73;100.00;54662.22;4855686;29;20041;-75
2023/10/27 03:32:22;;;;;;;5.47;3.05;;;;;;;-144.73;100.00;54629.38;4858636;29;20115;-75
2023/10/27 03:34:47;;;;;;;8.18;3.60;;;;;;;-144.73;100.00;54670.44;4846272;29;20462;-75
2023/10/27 03:37:13;;;;;;;6.95;2.83;;;;;;;-144.73;100.00;54621.16;4859131;29;20022;-75
2023/10/27 03:39:39;;;;;;;5.30;3.05;;;;;;;-144.73;100.00;54633.47;4861737;29;20089;-75
2023/10/27 03:42:05;;;;;;;7.30;3.28;;;;;;;-144.73;100.00;54631.44;4850194;29;20032;-75
2023/10/27 03:44:33;;;;;;;8.63;3.50;;;;;;;-144.73;100.00;54612.97;4847637;29;20090;-75
2023/10/27 03:46:58;;;;;;;9.15;3.78;;;;;;;-144.73;100.00;54645.78;4859063;29;20021;-75
2023/10/27 03:49:24;;;;;;;11.70;4.72;;;;;;;-144.73;100.00;54670.44;4858516;29;20347;-75
2023/10/27 03:51:50;;;;;;;12.88;4.22;;;;;;;-144.73;100.00;54654.00;4858726;29;20037;-75
2023/10/27 03:54:15;;;;;;;14.95;4.32;;;;;;;-144.73;100.00;54633.47;4863399;29;20041;-76
2023/10/27 03:56:40;;;;;;;11.15;5.03;;;;;;;-144.73;100.00;54633.47;4848457;29;20029;-75
2023/10/27 03:59:05;;;;;;;18.67;4.47;;;;;;;-144.73;100.00;54596.53;4847423;29;20076;-75
2023/10/27 04:01:31;;;;;;;14.27;5.30;;;;;;;-144.73;100.00;54610.91;4852152;29;20032;-75
2023/10/27 04:03:56;;;;;;;23.58;5.18;;;;;;;-144.73;100.00;54633.47;4867926;29;20048;-75
2023/10/27 04:06:21;;;;;;;17.17;5.68;;;;;;;-144.73;100.00;54672.47;4842032;29;20041;-75
2023/10/27 04:08:47;;;;;;;14.98;4.97;;;;;;;-144.73;100.00;54617.06;4862186;29;20033;-75
2023/10/27 04:11:13;;;;;;;12.15;3.88;;;;;;;-144.73;100.00;54637.59;4847006;29;20018;-75
2023/10/27 04:13:39;;;;;;;8.45;4.43;;;;;;;-144.73;100.00;54600.63;4860559;29;20021;-75
2023/10/27 04:16:04;;;;;;;8.40;4.03;;;;;;;-144.73;100.00;54658.13;4854718;29;20017;-75
2023/10/27 04:18:30;;;;;;;11.75;4.57;;;;;;;-144.73;100.00;54629.38;4870071;29;20050;-75
2023/10/27 04:20:55;;;;;;;9.20;3.65;;;;;;;-144.73;100.00;54645.78;4865524;29;20022;-75
2023/10/27 04:23:20;;;;;;;11.23;4.10;;;;;;;-144.73;100.00;54641.69;4865794;29;20033;-75
2023/10/27 04:25:47;;;;;;;13.35;4.05;;;;;;;-144.73;100.00;54608.84;4867767;29;20036;-75
2023/10/27 04:28:13;;;;;;;10.93;3.30;;;;;;;-144.73;100.00;54625.28;4861104;29;20041;-75
2023/10/27 04:30:38;;;;;;;11.85;3.78;;;;;;;-144.73;100.00;54637.59;4864968;29;20025;-75
2023/10/27 04:33:09;;;;;;;6.72;3.80;;;;;;;-144.73;100.00;54588.31;4860199;29;20026;-75
2023/10/27 04:35:35;;;;;;;7.80;2.67;;;;;;;-144.73;100.00;54637.59;4863591;29;20170;-75
2023/10/27 04:38:00;;;;;;;15.82;3.00;;;;;;;-144.73;100.00;54690.97;4851787;29;20069;-76
2023/10/27 04:40:28;;;;;;;6.28;3.05;;;;;;;-144.73;100.00;54596.53;4864680;29;20045;-77
2023/10/27 04:42:56;;;;;;;11.82;3.92;;;;;;;-144.73;100.00;54641.69;4861775;29;20110;-77
2023/10/27 04:45:22;;;;;;;6.20;2.95;;;;;;;-144.73;100.00;54658.13;4864495;29;20037;-76
2023/10/27 04:47:47;;;;;;;7.05;2.90;;;;;;;-144.73;100.00;54596.53;4852887;29;20108;-77
2023/10/27 04:50:13;;;;;;;7.07;2.72;;;;;;;-144.73;100.00;54600.63;4858796;29;20038;-76
2023/10/27 04:52:39;;;;;;;6.32;2.78;;;;;;;-144.73;100.00;54637.59;4866800;29;20040;-77
2023/10/27 04:55:06;;;;;;;3.50;2.13;;;;;;;-144.73;100.00;54641.69;4850039;29;20033;-76
2023/10/27 04:57:32;;;;;;;6.38;2.70;;;;;;;-144.73;100.00;54674.53;4868661;29;20022;-77
2023/10/27 04:59:58;;;;;;;4.85;2.60;;;;;;;-144.73;100.00;54658.13;4865996;29;20033;-77
2023/10/27 05:02:23;;;;;;;4.93;2.30;;;;;;;-144.73;100.00;54649.91;4865896;29;20130;-77
2023/10/27 05:04:49;;;;;;;5.57;2.42;;;;;;;-144.73;100.00;54643.75;4846890;29;20038;-77
2023/10/27 05:07:14;;;;;;;6.18;1.80;;;;;;;-144.73;100.00;54621.16;4852513;29;20469;-77
2023/10/27 05:09:40;;;;;;;4.70;2.10;;;;;;;-144.73;100.00;54645.78;4850668;29;20561;-77
2023/10/27 05:12:05;;;;;;;4.20;2.17;;;;;;;-144.73;100.00;54660.16;4851988;29;20120;-76
2023/10/27 05:14:32;;;;;;;3.20;1.60;;;;;;;-144.73;100.00;54606.78;4865812;29;20116;-76
2023/10/27 05:16:58;;;;;;;2.63;1.90;;;;;;;-144.73;100.00;54627.31;4868601;29;20454;-77
2023/10/27 05:19:24;;;;;;;4.95;2.63;;;;;;;-144.73;100.00;54584.22;4862560;29;20070;-77
2023/10/27 05:21:50;;;;;;;5.82;2.38;;;;;;;-144.73;100.00;54662.22;4870491;29;20029;-78
2023/10/27 05:24:15;;;;;;;5.93;2.25;;;;;;;-144.73;100.00;54637.59;4867308;29;20040;-76
2023/10/27 05:26:41;;;;;;;4.15;2.92;;;;;;;-144.73;100.00;54654.00;4873361;29;20021;-76
2023/10/27 05:29:07;;;;;;;7.78;3.78;;;;;;;-144.73;100.00;54637.59;4858279;29;20465;-76
2023/10/27 05:31:34;;;;;;;5.30;2.58;;;;;;;-144.73;100.00;54625.28;4853821;29;20021;-76
2023/10/27 05:34:00;;;;;;;4.85;2.42;;;;;;;-144.73;100.00;54662.22;4855357;29;20068;-76
2023/10/27 05:36:25;;;;;;;3.65;2.55;;;;;;;-144.73;100.00;54649.91;4862256;29;20029;-76
2023/10/27 05:38:50;;;;;;;8.02;3.30;;;;;;;-144.73;100.00;54608.84;4856590;29;20033;-76
2023/10/27 05:41:16;;;;;;;9.93;3.28;;;;;;;-144.73;100.00;54649.91;4868675;29;20128;-76
2023/10/27 05:43:41;;;;;;;7.40;3.40;;;;;;;-144.73;100.00;54649.91;4851448;29;20029;-76
2023/10/27 05:46:06;;;;;;;6.65;3.08;;;;;;;-144.73;100.00;54654.00;4853026;29;20033;-76
2023/10/27 05:48:32;;;;;;;6.85;3.42;;;;;;;-144.73;100.00;54629.38;4846514;29;20043;-74
2023/10/27 05:50:57;;;;;;;8.10;3.10;;;;;;;-144.73;100.00;54617.06;4857107;29;20034;-74
2023/10/27 05:53:23;;;;;;;8.15;3.30;;;;;;;-144.73;100.00;54670.44;4857574;29;20052;-74
2023/10/27 05:55:49;;;;;;;5.53;3.17;;;;;;;-144.73;100.00;54612.97;4864535;29;20041;-74
2023/10/27 05:58:14;;;;;;;5.28;2.92;;;;;;;-144.73;100.00;54608.84;4861303;29;20032;-74
2023/10/27 06:00:40;;;;;;;11.73;3.22;;;;;;;-144.73;100.00;54690.97;4856256;29;20097;-73
2023/10/27 06:03:05;;;;;;;6.85;3.00;;;;;;;-144.73;100.00;54629.38;4847604;29;20431;-74
2023/10/27 06:05:31;;;;;;;23.00;10.38;;;;;;;-144.73;100.00;54676.59;4866496;29;20067;-74
2023/10/27 06:07:57;;;;;;;10.73;3.55;;;;;;;-144.73;100.00;54670.44;4846434;29;20040;-74
2023/10/27 06:10:22;;;;;;;6.47;3.42;;;;;;;-144.73;100.00;54625.28;4845528;29;20400;-74
2023/10/27 06:12:47;;;;;;;5.78;3.30;;;;;;;-144.73;100.00;54699.16;4843747;29;20022;-74
2023/10/27 06:15:12;;;;;;;6.13;3.80;;;;;;;-144.73;100.00;54619.13;4866320;29;20061;-74
2023/10/27 06:17:38;;;;;;;9.63;4.32;;;;;;;-144.73;100.00;54617.06;4847891;29;20032;-74
2023/10/27 06:20:04;;;;;;;6.93;3.28;;;;;;;-144.73;100.00;54604.75;4848880;29;20034;-74
2023/10/27 06:22:30;;;;;;;9.35;4.22;;;;;;;-144.73;100.00;54617.06;4861007;29;20062;-74
2023/10/27 06:24:55;;;;;;;10.63;4.15;;;;;;;-144.73;100.00;54612.97;4866218;29;20048;-73
2023/10/27 06:27:21;;;;;;;9.65;4.40;;;;;;;-144.73;100.00;54670.44;4865194;29;20032;-74
2023/10/27 06:29:47;;;;;;;10.90;4.60;;;;;;;-144.73;100.00;54645.78;4851303;29;20113;-73
2023/10/27 06:32:13;;;;;;;8.60;4.85;;;;;;;-144.73;100.00;54637.59;4859458;29;20162;-73
2023/10/27 06:34:38;;;;;;;8.63;3.92;;;;;;;-144.73;100.00;54649.91;4845432;29;20409;-73
2023/10/27 06:37:05;;;;;;;9.05;3.58;;;;;;;-144.73;100.00;54649.91;4849999;29;20061;-73
2023/10/27 06:39:30;;;;;;;9.25;4.13;;;;;;;-144.73;100.00;54662.22;4857649;29;20093;-73
2023/10/27 06:41:56;;;;;;;14.75;6.32;;;;;;;-144.73;100.00;54610.91;4859462;29;20075;-73
2023/10/27 06:44:22;;;;;;;13.48;4.32;;;;;;;-144.73;100.00;54621.16;4846930;29;20057;-73
2023/10/27 06:46:47;;;;;;;10.23;4.45;;;;;;;-144.73;100.00;54625.28;4842157;29;20028;-73
2023/10/27 06:49:13;;;;;;;13.68;4.40;;;;;;;-144.73;100.00;54662.22;4856705;29;20053;-73
2023/10/27 06:51:39;;;;;;;11.20;4.65;;;;;;;-144.73;100.00;54612.97;4860091;29;20053;-73
2023/10/27 06:54:04;;;;;;;9.57;4.38;;;;;;;-144.73;100.00;54645.78;4836242;29;20476;-73
2023/10/27 06:56:30;;;;;;;10.10;4.35;;;;;;;-144.73;100.00;54649.91;4860533;29;20107;-73
2023/10/27 06:58:55;;;;;;;8.32;4.18;;;;;;;-144.73;100.00;54617.06;4844886;29;20052;-73
2023/10/27 07:01:20;;;;;;;12.20;3.88;;;;;;;-144.73;100.00;54629.38;4859638;29;20043;-73
2023/10/27 07:03:46;;;;;;;15.00;4.13;;;;;;;-144.73;100.00;54690.97;4858173;29;20033;-73
2023/10/27 07:06:12;;;;;;;11.10;4.47;;;;;;;-144.73;100.00;54649.91;4857440;29;20068;-73
2023/10/27 07:08:37;;;;;;;12.75;4.65;;;;;;;-144.73;100.00;54625.28;4859713;29;20163;-73
2023/10/27 07:11:03;;;;;;;8.30;3.72;;;;;;;-144.73;100.00;54621.16;4849098;29;20501;-73
2023/10/27 07:13:30;;;;;;;10.77;4.28;;;;;;;-144.73;100.00;54670.44;4848548;29;20052;-73
2023/10/27 07:15:56;;;;;;;11.65;5.15;;;;;;;-144.73;100.00;54654.00;4859031;29;20037;-73
2023/10/27 07:18:21;;;;;;;10.43;4.70;;;;;;;-144.73;100.00;54645.78;4841862;29;20038;-73
2023/10/27 07:20:47;;;;;;;9.82;4.65;;;;;;;-144.73;100.00;54617.06;4858587;29;20037;-73
2023/10/27 07:23:13;;;;;;;10.45;4.03;;;;;;;-144.73;100.00;54678.63;4865342;29;20053;-73
2023/10/27 07:25:39;;;;;;;6.28;3.67;;;;;;;-144.73;100.00;54645.78;4841636;29;20041;-73
2023/10/27 07:28:04;;;;;;;18.40;4.03;;;;;;;-144.73;100.00;54682.75;4846664;29;20036;-73
2023/10/27 07:30:30;;;;;;;7.65;3.38;;;;;;;-144.73;100.00;54625.28;4857972;29;20030;-74
2023/10/27 07:32:57;;;;;;;8.38;3.53;;;;;;;-144.73;100.00;54649.91;4846839;29;20035;-74
2023/10/27 07:35:22;;;;;;;13.68;3.72;;;;;;;-144.73;100.00;54637.59;4838761;29;20034;-73
2023/10/27 07:37:48;;;;;;;9.77;3.58;;;;;;;-144.73;100.00;54674.53;4854550;29;20474;-73
2023/10/27 07:40:15;;;;;;;12.25;3.65;;;;;;;-144.73;100.00;54688.91;4857623;29;20102;-73
2023/10/27 07:42:41;;;;;;;18.10;4.45;;;;;;;-144.73;100.00;54654.00;4861745;29;20049;-70
2023/10/27 07:45:07;;;;;;;9.35;3.35;;;;;;;-144.73;100.00;54654.00;4859212;29;20121;-73
2023/10/27 07:47:32;;;;;;;8.68;3.40;;;;;;;-144.73;100.00;54654.00;4857385;29;20034;-73
2023/10/27 07:50:00;;;;;;;6.80;3.35;;;;;;;-144.73;100.00;54670.44;4858998;29;20034;-73
2023/10/27 07:52:25;;;;;;;7.78;3.53;;;;;;;-144.73;100.00;54617.06;4857848;29;20036;-72
2023/10/27 07:54:50;;;;;;;9.50;3.67;;;;;;;-144.73;100.00;54592.44;4865008;29;20046;-72
2023/10/27 07:57:16;;;;;;;11.25;3.72;;;;;;;-144.73;100.00;54647.84;4856765;29;20050;-72
2023/10/27 07:59:42;;;;;;;7.90;3.33;;;;;;;-144.73;100.00;54662.22;4858723;29;20051;-72
2023/10/27 08:02:07;;;;;;;11.32;4.55;;;;;;;-144.73;100.00;54641.69;4857619;29;20044;-72
2023/10/27 08:04:34;;;;;;;13.98;4.13;;;;;;;-144.73;100.00;54637.59;4840452;29;20072;-73
2023/10/27 08:07:00;;;;;;;9.43;3.17;;;;;;;-144.73;100.00;54654.00;4849547;29;20481;-72
2023/10/27 08:09:25;;;;;;;6.82;3.00;;;;;;;-144.73;100.00;54670.44;4838154;29;20042;-73
2023/10/27 08:11:53;;;;;;;14.15;3.25;;;;;;;-144.73;100.00;54645.78;4854372;29;20057;-73
2023/10/27 08:14:18;;;;;;;5.65;2.70;;;;;;;-144.73;100.00;54641.69;4858595;29;20033;-73
2023/10/27 08:16:44;;;;;;;5.95;2.70;;;;;;;-144.73;100.00;54625.28;4853002;29;20045;-73
2023/10/27 08:19:09;;;;;;;8.13;2.88;;;;;;;-144.73;100.00;54678.63;4856161;29;20038;-72
2023/10/27 08:21:34;;;;;;;6.95;3.05;;;;;;;-144.73;100.00;54662.22;4840678;29;20040;-73
2023/10/27 08:24:00;;;;;;;6.53;3.10;;;;;;;-144.73;100.00;54625.28;4857410;29;20114;-73
2023/10/27 08:26:26;;;;;;;8.10;3.20;;;;;;;-144.73;100.00;54637.59;4860120;29;20058;-74
2023/10/27 08:28:51;;;;;;;4.85;2.72;;;;;;;-144.73;100.00;54645.78;4869280;29;20062;-73
2023/10/27 08:31:16;;;;;;;8.40;3.08;;;;;;;-144.73;100.00;54625.28;4861678;29;20040;-74
2023/10/27 08:33:42;;;;;;;4.70;2.92;;;;;;;-144.73;100.00;54629.38;4835633;29;20018;-73
2023/10/27 08:36:08;;;;;;;7.45;2.30;;;;;;;-144.73;100.00;54649.91;4857665;29;20017;-73
2023/10/27 08:38:33;;;;;;;9.43;2.88;;;;;;;-144.73;100.00;54670.44;4838898;29;20101;-73
2023/10/27 08:40:59;;;;;;;4.95;2.90;;;;;;;-144.73;100.00;54633.47;4857606;29;20030;-73
2023/10/27 08:43:25;;;;;;;10.10;4.28;;;;;;;-144.73;100.00;54625.28;4841420;29;20033;-73
2023/10/27 08:45:51;;;;;;;26.20;15.43;;;;;;;-144.73;100.00;54629.38;4846704;29;20061;-73
2023/10/27 08:48:18;;;;;;;5.95;2.63;;;;;;;-144.73;100.00;54682.75;4845752;29;20041;-74
2023/10/27 08:50:43;;;;;;;4.63;2.40;;;;;;;-144.73;100.00;54658.13;4842611;29;20038;-74
2023/10/27 08:53:11;;;;;;;8.93;2.40;;;;;;;-144.73;100.00;54654.00;4855658;29;20045;-73
2023/10/27 08:55:37;;;;;;;4.25;2.30;;;;;;;-144.73;100.00;54645.78;4861453;29;20093;-74
2023/10/27 08:58:02;;;;;;;5.07;2.50;;;;;;;-144.73;100.00;54643.75;4845665;29;20105;-74
2023/10/27 09:00:28;;;;;;;9.15;2.60;;;;;;;-144.73;100.00;54608.84;4843853;29;20052;-74
2023/10/27 09:02:54;;;;;;;5.07;2.47;;;;;;;-144.73;100.00;54604.75;4846149;29;20053;-74
2023/10/27 09:05:21;;;;;;;4.93;2.38;;;;;;;-144.73;100.00;54670.44;4863015;29;20036;-74
2023/10/27 09:07:47;;;;;;;6.82;3.00;;;;;;;-144.73;100.00;54637.59;4843044;29;20041;-74
2023/10/27 09:10:13;;;;;;;5.50;2.95;;;;;;;-144.73;100.00;54629.38;4845598;29;20082;-75
2023/10/27 09:12:40;;;;;;;5.70;2.63;;;;;;;-144.73;100.00;54658.13;4853584;29;20021;-74
2023/10/27 09:15:13;;;;;;;8.55;2.80;;;;;;;-144.73;100.00;54649.91;4845113;29;20729;-74
2023/10/27 09:17:57;;;;;;;6.40;2.80;;;;;;;-144.73;100.00;54625.28;4851172;29;20034;-74
2023/10/27 09:20:25;;;;;;;7.15;3.20;;;;;;;-144.73;100.00;54654.00;4855280;29;20094;-74
2023/10/27 09:23:07;;;;;;;5.60;3.05;;;;;;;-144.73;100.00;54637.59;4856441;29;20017;-74
2023/10/27 09:25:33;;;;;;;8.07;2.88;;;;;;;-144.73;100.00;54654.00;4855789;29;20041;-74
2023/10/27 09:28:03;;;;;;;4.80;2.65;;;;;;;-144.73;100.00;54600.63;4856197;29;20062;-74
2023/10/27 09:30:32;;;;;;;5.03;3.22;;;;;;;-144.73;100.00;54658.13;4852235;29;20068;-74
2023/10/27 09:33:18;;;;;;;9.13;3.47;;;;;;;-144.73;100.00;54617.06;4853837;29;20025;-74
2023/10/27 09:35:46;;;;;;;5.75;3.10;;;;;;;-144.73;100.00;54670.44;4861728;29;20490;-74
2023/10/27 09:38:13;;;;;;;9.50;3.80;;;;;;;-144.73;100.00;54629.38;4859138;29;20013;-74
2023/10/27 09:40:39;;;;;;;4.70;2.83;;;;;;;-144.73;100.00;54625.28;4857712;29;20053;-75
2023/10/27 09:43:24;;;;;;;10.48;3.58;;;;;;;-144.73;100.00;54658.13;4845586;29;20037;-74
2023/10/27 09:46:01;;;;;;;14.40;3.92;;;;;;;-144.73;100.00;54658.13;4844796;29;20040;-75
2023/10/27 09:48:29;;;;;;;9.93;3.67;;;;;;;-144.73;100.00;54676.59;4858053;29;20021;-75
2023/10/27 09:51:26;;;;;;;5.50;2.80;;;;;;;-144.73;100.00;54649.91;4858946;29;20048;-74
2023/10/27 09:53:53;;;;;;;5.47;3.08;;;;;;;-144.73;100.00;54625.28;4836835;29;20037;-74
2023/10/27 09:56:19;;;;;;;7.32;3.25;;;;;;;-144.73;100.00;54645.78;4858716;29;20030;-75
2023/10/27 09:58:45;;;;;;;9.55;3.58;;;;;;;-144.73;100.00;54658.13;4857465;29;20025;-74
2023/10/27 10:01:10;;;;;;;7.15;3.30;;;;;;;-144.73;100.00;54674.53;4860831;29;20025;-74
2023/10/27 10:03:41;;;;;;;6.32;3.58;;;;;;;-144.73;100.00;54654.00;4859251;29;20032;-75
2023/10/27 10:06:11;;;;;;;4.95;2.90;;;;;;;-144.73;100.00;54658.13;4853364;29;20533;-74
2023/10/27 10:08:37;;;;;;;6.95;3.00;;;;;;;-144.73;100.00;54660.16;4843191;29;20033;-74
2023/10/27 10:11:16;;;;;;;9.55;3.63;;;;;;;-144.73;100.00;54654.00;4853834;29;20093;-77
2023/10/27 10:13:41;;;;;;;8.77;3.20;;;;;;;-144.73;100.00;54711.47;4854949;29;20028;-74
2023/10/27 10:16:08;;;;;;;7.45;3.47;;;;;;;-144.73;100.00;54660.16;4843296;29;20021;-74
2023/10/27 10:18:34;;;;;;;7.20;3.38;;;;;;;-144.73;100.00;54643.75;4855142;29;20066;-75
2023/10/27 10:21:00;;;;;;;6.47;3.90;;;;;;;-144.73;100.00;54623.22;4868039;29;20025;-74
2023/10/27 10:23:58;;;;;;;26.25;5.97;;;;;;;-144.73;100.00;54629.38;4860761;29;20021;-74
2023/10/27 10:27:15;;;;;;;11.25;3.58;;;;;;;-144.73;100.00;54617.06;4825583;29;20116;-74
2023/10/27 10:29:42;;;;;;;10.60;3.38;;;;;;;-144.73;100.00;54637.59;4833437;29;20038;-74
2023/10/27 10:32:30;;;;;;;7.53;3.40;;;;;;;-144.73;100.00;54637.59;4851029;29;20053;-74
2023/10/27 10:35:21;;;;;;;12.75;5.03;;;;;;;-144.73;100.00;54621.16;4843281;29;20034;-74
2023/10/27 10:37:48;;;;;;;8.38;4.20;;;;;;;-144.73;100.00;54654.00;4843759;29;20093;-74
2023/10/27 10:40:22;;;;;;;9.10;4.72;;;;;;;-144.73;100.00;54658.13;4868491;29;20474;-74
2023/10/27 10:43:17;;;;;;;7.47;4.18;;;;;;;-144.73;100.00;54639.63;4863016;29;20036;-74
2023/10/27 10:45:44;;;;;;;8.32;4.50;;;;;;;-144.73;100.00;54649.91;4856807;29;20041;-74
2023/10/27 10:48:10;;;;;;;9.38;5.53;;;;;;;-144.73;100.00;54629.38;4844852;29;20025;-74
2023/10/27 10:50:35;;;;;;;8.63;5.22;;;;;;;-144.73;100.00;54617.06;4856014;29;20033;-74
2023/10/27 10:53:11;;;;;;;9.57;4.32;;;;;;;-144.73;100.00;54629.38;4846290;29;20509;-74
2023/10/27 10:55:37;;;;;;;11.40;4.75;;;;;;;-144.73;100.00;54598.59;4867829;29;20025;-74
2023/10/27 10:58:02;;;;;;;8.45;4.50;;;;;;;-144.73;100.00;54629.38;4853533;29;20185;-74
2023/10/27 11:00:35;;;;;;;7.28;4.20;;;;;;;-144.73;100.00;54658.13;4854782;29;20109;-74
2023/10/27 11:03:12;;;;;;;6.78;3.70;;;;;;;-144.73;100.00;54651.97;4860371;29;20493;-74
2023/10/27 11:05:37;;;;;;;8.45;4.22;;;;;;;-144.73;100.00;54690.97;4858121;29;20289;-74